createdAt,value
2022-07-28T00:02:21.359Z,15.77
2022-07-28T00:05:07.286Z,15.74
2022-07-28T00:07:53.292Z,15.73
2022-07-28T00:10:38.440Z,15.69
2022-07-28T00:13:23.739Z,15.59
2022-07-28T00:16:09.279Z,15.56
2022-07-28T00:18:54.395Z,15.54
2022-07-28T00:21:40.064Z,15.48
2022-07-28T00:24:25.674Z,15.45
2022-07-28T00:27:11.280Z,15.38
2022-07-28T00:29:56.701Z,15.34
2022-07-28T00:32:41.974Z,15.33
2022-07-28T00:35:30.507Z,15.31
2022-07-28T00:38:17.144Z,15.25
2022-07-28T00:41:12.023Z,15.19
2022-07-28T00:43:57.590Z,15.11
2022-07-28T00:46:43.248Z,15.07
2022-07-28T00:49:28.544Z,15.04
2022-07-28T00:52:17.014Z,14.95
2022-07-28T00:55:04.373Z,14.93
2022-07-28T00:57:50.397Z,14.92
2022-07-28T01:00:36.242Z,14.90
2022-07-28T01:03:22.875Z,14.84
2022-07-28T01:06:35.304Z,14.84
2022-07-28T01:09:38.836Z,14.79
2022-07-28T01:13:06.104Z,14.73
2022-07-28T01:16:06.602Z,14.71
2022-07-28T01:19:11.077Z,14.68
2022-07-28T01:22:00.505Z,14.67
2022-07-28T01:25:00.242Z,14.63
2022-07-28T01:27:48.657Z,14.58
2022-07-28T01:30:43.338Z,14.60
2022-07-28T01:33:37.021Z,14.64
2022-07-28T01:36:29.717Z,14.57
2022-07-28T01:39:16.145Z,14.58
2022-07-28T01:42:06.211Z,14.52
2022-07-28T01:44:55.525Z,14.50
2022-07-28T01:47:44.527Z,14.49
2022-07-28T01:50:31.021Z,14.46
2022-07-28T01:53:17.441Z,14.42
2022-07-28T01:56:04.240Z,14.37
2022-07-28T01:58:51.780Z,14.36
2022-07-28T02:01:42.298Z,14.36
2022-07-28T02:04:29.034Z,14.33
2022-07-28T02:07:16.517Z,14.30
2022-07-28T02:10:02.992Z,14.29
2022-07-28T02:12:51.577Z,14.32
2022-07-28T02:15:39.708Z,14.30
2022-07-28T02:18:26.864Z,14.22
2022-07-28T02:21:13.635Z,14.20
2022-07-28T02:23:59.972Z,14.13
2022-07-28T02:26:53.594Z,14.10
2022-07-28T02:29:52.273Z,14.05
2022-07-28T02:32:55.236Z,14.03
2022-07-28T02:35:56.745Z,14.04
2022-07-28T02:38:46.650Z,13.97
2022-07-28T02:41:36.980Z,13.92
2022-07-28T02:44:27.538Z,13.89
2022-07-28T02:47:18.925Z,13.85
2022-07-28T02:50:06.036Z,13.85
2022-07-28T02:52:55.335Z,13.83
2022-07-28T02:55:41.723Z,13.81
2022-07-28T02:58:28.311Z,13.79
2022-07-28T03:01:18.948Z,13.77
2022-07-28T03:04:04.865Z,13.78
2022-07-28T03:06:49.959Z,13.80
2022-07-28T03:09:43.099Z,13.80
2022-07-28T03:12:28.480Z,13.79
2022-07-28T03:15:14.052Z,13.79
2022-07-28T03:18:01.194Z,13.77
2022-07-28T03:20:46.647Z,13.67
2022-07-28T03:23:36.930Z,13.67
2022-07-28T03:26:41.706Z,13.67
2022-07-28T03:29:29.369Z,13.72
2022-07-28T03:32:15.543Z,13.77
2022-07-28T03:35:01.402Z,13.78
2022-07-28T03:37:54.351Z,13.79
2022-07-28T03:40:41.055Z,13.77
2022-07-28T03:43:34.568Z,13.78
2022-07-28T03:46:21.485Z,13.79
2022-07-28T03:49:08.401Z,13.76
2022-07-28T03:51:53.928Z,13.78
2022-07-28T03:54:39.293Z,13.72
2022-07-28T03:57:24.875Z,13.72
2022-07-28T04:00:12.867Z,13.74
2022-07-28T04:02:58.316Z,13.76
2022-07-28T04:05:44.177Z,13.81
2022-07-28T04:08:29.449Z,13.84
2022-07-28T04:11:17.567Z,13.85
2022-07-28T04:14:03.075Z,13.88
2022-07-28T04:16:48.465Z,13.93
2022-07-28T04:19:33.556Z,13.97
2022-07-28T04:22:18.646Z,14.03
2022-07-28T04:25:05.233Z,14.07
2022-07-28T04:27:51.802Z,14.11
2022-07-28T04:30:40.712Z,14.18
2022-07-28T04:33:30.600Z,14.19
2022-07-28T04:36:17.358Z,14.24
2022-07-28T04:39:03.284Z,14.25
2022-07-28T04:41:48.700Z,14.27
2022-07-28T04:44:35.633Z,14.31
2022-07-28T04:47:21.276Z,14.42
2022-07-28T04:50:09.033Z,14.55
2022-07-28T04:52:54.378Z,14.65
2022-07-28T04:55:39.651Z,14.71
2022-07-28T04:58:24.916Z,14.75
2022-07-28T05:01:10.514Z,14.75
2022-07-28T05:03:55.749Z,14.82
2022-07-28T05:06:41.150Z,14.82
2022-07-28T05:09:26.662Z,14.85
2022-07-28T05:12:12.644Z,14.95
2022-07-28T05:14:59.499Z,15.00
2022-07-28T05:17:45.071Z,15.09
2022-07-28T05:20:30.240Z,15.10
2022-07-28T05:23:17.505Z,15.15
2022-07-28T05:26:04.515Z,15.11
2022-07-28T05:28:49.915Z,15.08
2022-07-28T05:31:35.174Z,15.10
2022-07-28T05:34:20.503Z,15.14
2022-07-28T05:37:06.115Z,15.24
2022-07-28T05:39:51.262Z,15.30
2022-07-28T05:42:36.556Z,15.32
2022-07-28T05:45:21.889Z,15.39
2022-07-28T05:48:07.255Z,15.54
2022-07-28T05:50:54.309Z,15.61
2022-07-28T05:53:39.943Z,15.72
2022-07-28T05:56:24.994Z,15.85
2022-07-28T05:59:10.609Z,16.04
2022-07-28T06:01:55.943Z,16.26
2022-07-28T06:04:41.091Z,16.26
2022-07-28T06:07:42.267Z,16.29
2022-07-28T06:10:48.741Z,16.42
2022-07-28T06:13:34.125Z,16.56
2022-07-28T06:16:20.776Z,16.68
2022-07-28T06:19:06.422Z,16.83
2022-07-28T06:21:52.510Z,16.83
2022-07-28T06:24:37.991Z,16.79
2022-07-28T06:27:23.414Z,16.81
2022-07-28T06:30:10.071Z,16.97
2022-07-28T06:32:56.342Z,17.12
2022-07-28T06:35:46.522Z,17.21
2022-07-28T06:38:33.457Z,17.40
2022-07-28T06:41:18.674Z,17.57
2022-07-28T06:44:03.967Z,17.79
2022-07-28T06:46:54.179Z,17.95
2022-07-28T06:49:39.693Z,18.00
2022-07-28T06:52:25.178Z,18.02
2022-07-28T06:55:12.119Z,18.05
2022-07-28T06:57:59.279Z,18.22
2022-07-28T07:00:44.666Z,18.27
2022-07-28T07:03:30.207Z,18.30
2022-07-28T07:06:15.276Z,18.27
2022-07-28T07:09:00.436Z,18.09
2022-07-28T07:11:46.101Z,17.96
2022-07-28T07:14:31.406Z,17.98
2022-07-28T07:17:16.708Z,18.08
2022-07-28T07:20:01.974Z,18.20
2022-07-28T07:22:47.433Z,18.24
2022-07-28T07:25:32.615Z,18.31
2022-07-28T07:28:18.182Z,18.42
2022-07-28T07:31:03.585Z,18.52
2022-07-28T07:33:49.185Z,18.48
2022-07-28T07:36:36.707Z,18.67
2022-07-28T07:39:22.036Z,18.83
2022-07-28T07:42:07.236Z,19.02
2022-07-28T07:44:52.988Z,19.05
2022-07-28T07:47:38.568Z,19.14
2022-07-28T07:50:24.013Z,19.18
2022-07-28T07:53:09.721Z,19.22
2022-07-28T07:55:55.240Z,19.01
2022-07-28T07:58:41.843Z,19.03
2022-07-28T08:01:27.735Z,19.05
2022-07-28T08:04:15.258Z,19.16
2022-07-28T08:07:02.487Z,19.35
2022-07-28T08:09:49.782Z,19.61
2022-07-28T08:12:35.194Z,19.78
2022-07-28T08:15:22.560Z,19.85
2022-07-28T08:18:13.857Z,20.02
2022-07-28T08:20:59.808Z,20.27
2022-07-28T08:23:45.061Z,20.53
2022-07-28T08:26:30.761Z,20.62
2022-07-28T08:29:16.733Z,20.59
2022-07-28T08:32:04.103Z,20.29
2022-07-28T08:34:49.406Z,20.11
2022-07-28T08:37:34.520Z,20.17
2022-07-28T08:40:22.432Z,20.21
2022-07-28T08:43:35.061Z,20.45
2022-07-28T08:46:22.793Z,20.82
2022-07-28T08:49:11.946Z,20.93
2022-07-28T08:52:20.914Z,21.05
2022-07-28T08:58:28.751Z,21.27
2022-07-28T09:01:20.573Z,21.18
2022-07-28T09:11:40.245Z,21.31
2022-07-28T09:14:42.714Z,21.47
2022-07-28T09:18:00.351Z,21.43
2022-07-28T09:21:24.627Z,21.68
2022-07-28T09:28:12.612Z,22.01
2022-07-28T09:31:09.646Z,22.43
2022-07-28T09:34:03.597Z,22.47
2022-07-28T09:36:49.083Z,22.47
2022-07-28T09:39:36.562Z,22.44
2022-07-28T09:42:22.204Z,22.51
2022-07-28T09:45:25.427Z,22.46
2022-07-28T09:48:14.850Z,22.52
2022-07-28T09:51:14.125Z,22.37
2022-07-28T09:54:14.348Z,22.28
2022-07-28T09:57:00.135Z,21.80
2022-07-28T09:59:50.759Z,21.77
2022-07-28T10:02:40.698Z,21.82
2022-07-28T10:05:39.782Z,21.72
2022-07-28T10:08:45.201Z,21.73
2022-07-28T10:11:31.659Z,21.75
2022-07-28T10:14:21.459Z,21.93
2022-07-28T10:17:09.843Z,22.13
2022-07-28T10:19:58.360Z,22.38
2022-07-28T10:22:44.542Z,22.35
2022-07-28T10:25:32.502Z,22.39
2022-07-28T10:28:22.872Z,22.34
2022-07-28T10:31:11.683Z,21.87
2022-07-28T10:33:59.540Z,21.61
2022-07-28T10:36:47.595Z,21.59
2022-07-28T10:39:42.011Z,21.52
2022-07-28T10:42:28.655Z,21.46
2022-07-28T10:45:17.162Z,21.51
2022-07-28T10:48:11.788Z,21.07
2022-07-28T10:51:18.347Z,20.90
2022-07-28T10:54:25.136Z,21.10
2022-07-28T10:57:23.841Z,21.39
2022-07-28T11:00:26.908Z,21.44
2022-07-28T11:03:44.909Z,21.18
2022-07-28T11:06:46.154Z,20.86
2022-07-28T11:09:34.484Z,20.92
2022-07-28T11:13:14.246Z,21.09
2022-07-28T11:16:23.178Z,21.00
2022-07-28T11:19:36.088Z,20.84
2022-07-28T11:23:04.542Z,20.84
2022-07-28T11:26:24.909Z,21.17
2022-07-28T11:29:11.642Z,21.50
2022-07-28T11:31:57.364Z,21.83
2022-07-28T11:35:09.879Z,22.18
2022-07-28T11:38:03.541Z,22.57
2022-07-28T11:40:59.083Z,22.52
2022-07-28T11:43:50.271Z,22.16
2022-07-28T11:46:44.646Z,21.89
2022-07-28T11:49:30.412Z,21.75
2022-07-28T11:52:17.792Z,21.87
2022-07-28T11:55:05.436Z,22.09
2022-07-28T11:57:53.814Z,22.17
2022-07-28T12:00:39.596Z,22.44
2022-07-28T12:03:49.223Z,22.55
2022-07-28T12:06:43.325Z,22.47
2022-07-28T12:09:41.746Z,22.21
2022-07-28T12:12:30.635Z,22.08
2022-07-28T12:15:16.203Z,22.07
2022-07-28T12:18:02.181Z,21.71
2022-07-28T12:20:49.824Z,21.48
2022-07-28T12:23:39.352Z,21.41
2022-07-28T12:26:41.047Z,21.50
2022-07-28T12:29:36.021Z,21.39
2022-07-28T12:32:31.514Z,21.65
2022-07-28T12:35:17.391Z,21.51
2022-07-28T12:38:02.871Z,21.45
2022-07-28T12:40:52.153Z,21.34
2022-07-28T12:43:37.698Z,21.30
2022-07-28T12:46:28.762Z,21.39
2022-07-28T12:49:21.723Z,21.53
2022-07-28T12:52:21.685Z,21.60
2022-07-28T12:55:22.258Z,21.41
2022-07-28T12:58:07.932Z,21.31
2022-07-28T13:00:53.837Z,21.46
2022-07-28T13:03:49.434Z,21.53
2022-07-28T13:06:37.721Z,21.64
2022-07-28T13:09:23.902Z,21.78
2022-07-28T13:12:18.130Z,21.78
2022-07-28T13:15:10.269Z,21.77
2022-07-28T13:17:58.281Z,21.76
2022-07-28T13:20:48.328Z,21.91
2022-07-28T13:23:33.674Z,21.97
2022-07-28T13:26:18.815Z,22.18
2022-07-28T13:29:12.770Z,22.28
2022-07-28T13:31:58.616Z,22.23
2022-07-28T13:34:44.781Z,22.24
2022-07-28T13:37:30.157Z,22.27
2022-07-28T13:40:15.458Z,22.39
2022-07-28T13:43:00.837Z,22.45
2022-07-28T13:45:48.358Z,22.55
2022-07-28T13:48:35.755Z,22.53
2022-07-28T13:51:22.003Z,22.50
2022-07-28T13:54:07.447Z,22.32
2022-07-28T13:56:52.966Z,22.26
2022-07-28T13:59:39.036Z,22.32
2022-07-28T14:02:26.037Z,22.41
2022-07-28T14:05:13.103Z,22.51
2022-07-28T14:07:58.275Z,22.40
2022-07-28T14:10:48.346Z,22.38
2022-07-28T14:13:38.586Z,22.48
2022-07-28T14:16:24.479Z,22.39
2022-07-28T14:19:23.522Z,22.35
2022-07-28T14:22:22.878Z,22.03
2022-07-28T14:25:08.644Z,21.97
2022-07-28T14:27:55.224Z,21.88
2022-07-28T14:30:40.912Z,21.90
2022-07-28T14:33:45.625Z,21.91
2022-07-28T14:36:32.804Z,21.98
2022-07-28T14:39:18.123Z,21.97
2022-07-28T14:42:04.287Z,22.05
2022-07-28T14:44:50.112Z,22.09
2022-07-28T14:47:44.267Z,22.14
2022-07-28T14:50:31.115Z,22.20
2022-07-28T14:53:21.599Z,22.29
2022-07-28T14:56:14.265Z,22.36
2022-07-28T14:59:00.470Z,22.43
2022-07-28T15:01:49.172Z,22.40
2022-07-28T15:04:37.714Z,22.50
2022-07-28T15:07:26.034Z,22.59
2022-07-28T15:10:12.230Z,22.69
2022-07-28T15:13:00.598Z,22.80
2022-07-28T15:15:51.022Z,22.84
2022-07-28T15:18:36.766Z,22.88
2022-07-28T15:21:23.574Z,22.95
2022-07-28T15:24:10.499Z,22.89
2022-07-28T15:27:01.943Z,22.77
2022-07-28T15:29:52.248Z,22.80
2022-07-28T15:32:52.551Z,22.89
2022-07-28T15:35:58.278Z,22.98
2022-07-28T15:38:48.983Z,22.99
2022-07-28T15:41:36.557Z,23.06
2022-07-28T15:44:25.810Z,22.94
2022-07-28T15:47:11.638Z,22.84
2022-07-28T15:49:57.033Z,22.80
2022-07-28T15:52:42.355Z,22.90
2022-07-28T15:55:27.675Z,22.74
2022-07-28T15:58:13.057Z,22.74
2022-07-28T16:01:00.890Z,22.76
2022-07-28T16:03:47.762Z,22.79
2022-07-28T16:06:52.041Z,22.61
2022-07-28T16:09:45.339Z,22.60
2022-07-28T16:12:31.684Z,22.52
2022-07-28T16:15:18.072Z,22.43
2022-07-28T16:18:03.820Z,22.33
2022-07-28T16:20:49.389Z,22.27
2022-07-28T16:23:35.465Z,22.28
2022-07-28T16:26:20.967Z,22.28
2022-07-28T16:29:06.188Z,22.31
2022-07-28T16:31:51.604Z,22.33
2022-07-28T16:34:37.058Z,22.35
2022-07-28T16:37:22.551Z,22.39
2022-07-28T16:40:09.217Z,22.42
2022-07-28T16:42:54.485Z,22.46
2022-07-28T16:45:40.841Z,22.46
2022-07-28T16:48:26.380Z,22.46
2022-07-28T16:51:11.799Z,22.45
2022-07-28T16:53:59.744Z,22.45
2022-07-28T16:56:46.023Z,22.39
2022-07-28T16:59:40.204Z,22.37
2022-07-28T17:02:33.981Z,22.39
2022-07-28T17:05:19.391Z,22.38
2022-07-28T17:08:05.283Z,22.38
2022-07-28T17:10:56.605Z,22.37
2022-07-28T17:13:45.189Z,22.38
2022-07-28T17:16:31.151Z,22.35
2022-07-28T17:19:18.460Z,22.29
2022-07-28T17:22:07.484Z,22.27
2022-07-28T17:24:52.823Z,22.25
2022-07-28T17:27:41.283Z,22.21
2022-07-28T17:30:30.044Z,22.13
2022-07-28T17:33:15.940Z,22.10
2022-07-28T17:36:01.375Z,22.06
2022-07-28T17:38:53.255Z,22.08
2022-07-28T17:41:39.019Z,22.04
2022-07-28T17:44:24.781Z,22.02
2022-07-28T17:47:10.408Z,22.01
2022-07-28T17:49:55.597Z,21.98
2022-07-28T17:52:45.099Z,21.97
2022-07-28T17:55:57.527Z,21.95
2022-07-28T17:58:42.511Z,21.94
2022-07-28T18:01:28.935Z,21.93
2022-07-28T18:04:14.833Z,21.89
2022-07-28T18:07:00.271Z,21.84
2022-07-28T18:09:45.621Z,21.82
2022-07-28T18:12:31.272Z,21.79
2022-07-28T18:15:17.112Z,21.75
2022-07-28T18:18:03.474Z,21.71
2022-07-28T18:20:49.796Z,21.66
2022-07-28T18:23:35.663Z,21.61
2022-07-28T18:26:21.756Z,21.59
2022-07-28T18:29:07.489Z,21.57
2022-07-28T18:31:53.421Z,21.55
2022-07-28T18:34:40.326Z,21.51
2022-07-28T18:37:26.167Z,21.47
2022-07-28T18:40:17.964Z,21.44
2022-07-28T18:43:03.580Z,21.40
2022-07-28T18:45:48.939Z,21.36
2022-07-28T18:48:34.812Z,21.32
2022-07-28T18:51:20.024Z,21.27
2022-07-28T18:54:05.358Z,21.23
2022-07-28T18:56:51.733Z,21.18
2022-07-28T18:59:43.259Z,21.14
2022-07-28T19:02:34.189Z,21.08
2022-07-28T19:05:23.647Z,21.03
2022-07-28T19:08:12.322Z,20.99
2022-07-28T19:10:57.675Z,20.94
2022-07-28T19:13:42.846Z,20.87
2022-07-28T19:16:28.278Z,20.82
2022-07-28T19:19:14.741Z,20.79
2022-07-28T19:21:59.945Z,20.74
2022-07-28T19:24:45.266Z,20.70
2022-07-28T19:27:30.818Z,20.67
2022-07-28T19:30:17.250Z,20.63
2022-07-28T19:33:03.895Z,20.59
2022-07-28T19:35:49.448Z,20.54
2022-07-28T19:38:35.308Z,20.49
2022-07-28T19:41:20.885Z,20.44
2022-07-28T19:44:06.612Z,20.42
2022-07-28T19:46:53.739Z,20.37
2022-07-28T19:49:41.755Z,20.34
2022-07-28T19:52:27.397Z,20.32
2022-07-28T19:55:17.631Z,20.27
2022-07-28T19:58:03.899Z,20.22
2022-07-28T20:00:49.922Z,20.19
2022-07-28T20:04:03.297Z,20.18
2022-07-28T20:06:40.675Z,20.15
2022-07-28T20:09:25.926Z,20.11
2022-07-28T20:12:11.668Z,20.08
2022-07-28T20:14:57.084Z,20.03
2022-07-28T20:17:42.334Z,19.99
2022-07-28T20:20:27.824Z,19.95
2022-07-28T20:23:14.635Z,19.91
2022-07-28T20:25:59.940Z,19.88
2022-07-28T20:28:45.057Z,19.87
2022-07-28T20:31:31.462Z,19.84
2022-07-28T20:34:17.087Z,19.82
2022-07-28T20:37:02.750Z,19.82
2022-07-28T20:39:54.467Z,19.79
2022-07-28T20:42:40.114Z,19.77
2022-07-28T20:45:25.628Z,19.75
2022-07-28T20:48:14.526Z,19.74
2022-07-28T20:51:00.676Z,19.71
2022-07-28T20:53:47.180Z,19.71
2022-07-28T20:56:32.939Z,19.68
2022-07-28T20:59:18.260Z,19.66
2022-07-28T21:02:03.525Z,19.65
2022-07-28T21:04:50.468Z,19.63
2022-07-28T21:07:59.816Z,19.60
2022-07-28T21:10:41.430Z,19.56
2022-07-28T21:13:26.706Z,19.55
2022-07-28T21:16:11.932Z,19.53
2022-07-28T21:18:57.911Z,19.53
2022-07-28T21:21:43.493Z,19.49
2022-07-28T21:24:28.685Z,19.48
2022-07-28T21:27:17.685Z,19.47
2022-07-28T21:30:03.472Z,19.43
2022-07-28T21:32:48.909Z,19.42
2022-07-28T21:35:34.367Z,19.42
2022-07-28T21:38:19.827Z,19.41
2022-07-28T21:41:05.245Z,19.37
2022-07-28T21:43:54.101Z,19.34
2022-07-28T21:46:43.039Z,19.33
2022-07-28T21:49:30.489Z,19.32
2022-07-28T21:52:15.885Z,19.32
2022-07-28T21:55:02.019Z,19.31
2022-07-28T21:57:49.470Z,19.29
2022-07-28T22:00:35.168Z,19.29
2022-07-28T22:03:20.647Z,19.21
2022-07-28T22:06:07.121Z,19.15
2022-07-28T22:08:55.610Z,19.12
2022-07-28T22:11:41.158Z,19.06
2022-07-28T22:14:32.296Z,19.02
2022-07-28T22:17:17.738Z,18.98
2022-07-28T22:20:04.640Z,18.89
2022-07-28T22:22:50.186Z,18.88
2022-07-28T22:25:36.011Z,18.80
2022-07-28T22:28:29.423Z,18.77
2022-07-28T22:31:16.085Z,18.71
2022-07-28T22:34:01.589Z,18.67
2022-07-28T22:36:46.897Z,18.65
2022-07-28T22:39:35.670Z,18.61
2022-07-28T22:42:20.807Z,18.55
2022-07-28T22:45:06.571Z,18.53
2022-07-28T22:47:53.427Z,18.49
2022-07-28T22:50:40.375Z,18.46
2022-07-28T22:53:25.814Z,18.43
2022-07-28T22:56:12.385Z,18.39
2022-07-28T22:58:58.723Z,18.38
2022-07-28T23:01:44.630Z,18.36
2022-07-28T23:04:29.887Z,18.29
2022-07-28T23:07:15.843Z,18.26
2022-07-28T23:10:01.127Z,18.24
2022-07-28T23:12:46.321Z,18.22
2022-07-28T23:15:39.395Z,18.19
2022-07-28T23:18:27.120Z,18.16
2022-07-28T23:21:12.688Z,18.14
2022-07-28T23:23:57.923Z,18.07
2022-07-28T23:26:43.444Z,18.08
2022-07-28T23:29:28.767Z,18.02
2022-07-28T23:32:17.136Z,18.00
2022-07-28T23:35:02.797Z,17.98
2022-07-28T23:37:51.488Z,17.94
2022-07-28T23:40:36.937Z,17.88
2022-07-28T23:43:25.350Z,17.83
2022-07-28T23:46:10.721Z,17.78
2022-07-28T23:48:55.938Z,17.78
2022-07-28T23:51:47.902Z,17.70
2022-07-28T23:54:34.038Z,17.64
2022-07-28T23:57:19.472Z,17.61
